• Join FlightAware (Why Join?)
  • Login
  • US Flag 
03:55AM EDT


 

Airport Tracker/Info


-or-


 

Live Flight TrackerFlight Track Log ✈ ASQ5650 ✈ 27-Jun-2013 ✈ KATL - KCAE

Flight Track Log - Related Links

Times and Time Zones

All times are in EDT time to prevent confusion due to time zone crossing. See the ASQ5650 flight status page for this flight to view local times or setup timezone preferences in your user account.

Time Position Orientation Groundspeed Altitude Reporting Facility
EDT Latitude Longitude Course Direction KTS MPH feet Rate Location/Type
09:50AM 33.6500 -84.4500 287° West 156 180 2,500  Level Atlanta TRACON
09:51AM 33.6667 -84.5167 287° West 222 255 5,000 2,520 Climbing Atlanta TRACON
09:52AM 33.7167 -84.5833 312° West 271 312 7,900 2,460 Climbing Atlanta TRACON
09:53AM 33.7833 -84.5667 12° North 299 344 10,200 1,800 Climbing Atlanta TRACON
09:55AM 33.8150 -84.2789 82° East 372 428 14,300 1,620 Climbing Atlanta Center
09:56AM 33.8172 -84.1514 89° East 380 437 16,000 1,680 Climbing Atlanta Center
09:57AM 33.8214 -84.0164 88° East 386 444 17,700 1,500 Climbing Atlanta Center
09:58AM 33.8233 -83.8864 89° East 386 444 19,000 600 Climbing Atlanta Center
09:59AM 33.8253 -83.7461 89° East 402 463 19,000  Level Atlanta Center
10:00AM 33.8289 -83.5986 88° East 429 494 19,000  Level Atlanta Center
10:01AM 33.8306 -83.4661 89° East 441 507 19,000  Level Atlanta Center
10:02AM 33.8339 -83.3136 88° East 446 513 19,000  Level Atlanta Center
10:03AM 33.8369 -83.1586 89° East 451 519 19,000  Level Atlanta Center
10:04AM 33.8400 -83.0083 89° East 456 525 19,000  Level Atlanta Center
10:05AM 33.8408 -82.8608 90° East 451 519 19,000  Level Atlanta Center
10:06AM 33.8433 -82.7108 89° East 446 513 19,000  Level Atlanta Center
10:07AM 33.8458 -82.5606 89° East 441 507 19,000  Level Atlanta Center
10:08AM 33.8481 -82.3956 89° East 436 502 19,000 -720 Level Atlanta Center
10:10AM 33.8528 -82.1272 89° East 452 520 17,000 -1,680 Descending Jacksonville Center
10:11AM 33.8539 -81.9872 89° East 435 501 14,300 -2,460 Descending Jacksonville Center
10:12AM 33.8550 -81.8472 89° East 420 483 12,100 -1,680 Descending Jacksonville Center
10:13AM 33.8561 -81.7222 89° East 400 460 11,000 -1,080 Descending Jacksonville Center
10:14AM 33.8569 -81.5997 89° East 376 433 10,000 -900 Descending Jacksonville Center
10:15AM 33.8578 -81.4944 89° East 341 392 9,300 -540 Descending Jacksonville Center
10:16AM 33.8567 -81.3969 91° East 309 356 9,000 -900 Descending Jacksonville Center
10:17AM 33.8556 -81.3044 91° East 287 330 7,500 -1,380 Descending Jacksonville Center
10:19AM 33.8594 -81.1194 88° East 276 318 4,900 -1,500 Descending Jacksonville Center
10:20AM 33.8644 -81.0242 86° East 264 304 3,000 -1,920 Descending Jacksonville Center
10:22AM 33.9333 -81.1167 328° Northwest  Level FlightAware Approximate
10:29AM 33.9388 -81.1195 328° Northwest  Level Estimated
10:30AM 33.9333 -81.1167 328° Northwest  Level FlightAware Approximate
10:31AM 33.9388 -81.1195 328° Northwest  Level Estimated
10:32AM 33.9333 -81.1167 328° Northwest  Level FlightAware Approximate